sensor_id;sensor_type;location;lat;lon;timestamp;pressure;altitude;pressure_sealevel;temperature;humidity
60583;BME280;46415;47.536;19.066;2023-09-08T00:00:53;-18682.00;;;16.70;100.00
60583;BME280;46415;47.536;19.066;2023-09-08T00:04:08;-18679.41;;;16.60;100.00
60583;BME280;46415;47.536;19.066;2023-09-08T00:07:20;-18677.50;;;16.53;100.00
60583;BME280;46415;47.536;19.066;2023-09-08T00:10:33;-18676.13;;;16.48;100.00
60583;BME280;46415;47.536;19.066;2023-09-08T00:13:44;-18674.63;;;16.43;100.00
60583;BME280;46415;47.536;19.066;2023-09-08T00:16:58;-18673.13;;;16.37;100.00
60583;BME280;46415;47.536;19.066;2023-09-08T00:20:07;-18671.63;;;16.31;100.00
60583;BME280;46415;47.536;19.066;2023-09-08T00:23:21;-18670.69;;;16.28;100.00
60583;BME280;46415;47.536;19.066;2023-09-08T00:26:32;-18669.31;;;16.23;100.00
60583;BME280;46415;47.536;19.066;2023-09-08T00:29:46;-18668.22;;;16.19;100.00
60583;BME280;46415;47.536;19.066;2023-09-08T00:32:59;-18667.69;;;16.17;100.00
60583;BME280;46415;47.536;19.066;2023-09-08T00:36:12;-18667.69;;;16.17;100.00
60583;BME280;46415;47.536;19.066;2023-09-08T00:39:26;-18667.69;;;16.17;100.00
60583;BME280;46415;47.536;19.066;2023-09-08T00:42:39;-18666.88;;;16.14;100.00
60583;BME280;46415;47.536;19.066;2023-09-08T00:45:55;-18665.09;;;16.07;100.00
60583;BME280;46415;47.536;19.066;2023-09-08T00:49:11;-18664.00;;;16.03;100.00
60583;BME280;46415;47.536;19.066;2023-09-08T00:52:20;-18663.19;;;16.00;100.00
60583;BME280;46415;47.536;19.066;2023-09-08T00:55:37;-18661.69;;;15.95;100.00
60583;BME280;46415;47.536;19.066;2023-09-08T00:58:57;-18660.31;;;15.89;100.00
60583;BME280;46415;47.536;19.066;2023-09-08T01:02:09;-18660.31;;;15.89;100.00
60583;BME280;46415;47.536;19.066;2023-09-08T01:05:20;-18661.69;;;15.95;100.00
60583;BME280;46415;47.536;19.066;2023-09-08T01:08:32;-18662.63;;;15.98;100.00
60583;BME280;46415;47.536;19.066;2023-09-08T01:11:46;-18661.97;;;15.96;100.00
60583;BME280;46415;47.536;19.066;2023-09-08T01:14:57;-18661.81;;;15.95;100.00
60583;BME280;46415;47.536;19.066;2023-09-08T01:18:09;-18659.38;;;15.86;100.00
60583;BME280;46415;47.536;19.066;2023-09-08T01:28:00;-18656.78;;;15.76;100.00
60583;BME280;46415;47.536;19.066;2023-09-08T01:31:16;-18654.06;;;15.66;100.00
60583;BME280;46415;47.536;19.066;2023-09-08T01:34:30;-18652.56;;;15.61;100.00
60583;BME280;46415;47.536;19.066;2023-09-08T01:37:45;-18652.41;;;15.60;100.00
60583;BME280;46415;47.536;19.066;2023-09-08T01:40:56;-18651.06;;;15.55;100.00
60583;BME280;46415;47.536;19.066;2023-09-08T01:44:06;-18650.09;;;15.51;100.00
60583;BME280;46415;47.536;19.066;2023-09-08T01:47:19;-18648.31;;;15.45;100.00
60583;BME280;46415;47.536;19.066;2023-09-08T01:50:27;-18647.22;;;15.41;100.00
60583;BME280;46415;47.536;19.066;2023-09-08T01:53:41;-18646.13;;;15.37;100.00
60583;BME280;46415;47.536;19.066;2023-09-08T01:56:51;-18645.88;;;15.36;100.00
60583;BME280;46415;47.536;19.066;2023-09-08T02:00:03;-18645.31;;;15.34;100.00
60583;BME280;46415;47.536;19.066;2023-09-08T02:03:16;-18644.78;;;15.32;100.00
60583;BME280;46415;47.536;19.066;2023-09-08T02:06:29;-18644.50;;;15.31;100.00
60583;BME280;46415;47.536;19.066;2023-09-08T02:09:48;-18644.22;;;15.30;100.00
60583;BME280;46415;47.536;19.066;2023-09-08T02:13:03;-18643.13;;;15.26;100.00
60583;BME280;46415;47.536;19.066;2023-09-08T02:16:18;-18642.59;;;15.24;100.00
60583;BME280;46415;47.536;19.066;2023-09-08T02:19:28;-18641.38;;;15.19;100.00
60583;BME280;46415;47.536;19.066;2023-09-08T02:22:39;-18640.53;;;15.16;100.00
60583;BME280;46415;47.536;19.066;2023-09-08T02:25:53;-18640.41;;;15.16;100.00
60583;BME280;46415;47.536;19.066;2023-09-08T02:29:03;-18639.47;;;15.12;100.00
60583;BME280;46415;47.536;19.066;2023-09-08T02:32:14;-18638.78;;;15.09;100.00
60583;BME280;46415;47.536;19.066;2023-09-08T02:35:24;-18640.00;;;15.14;100.00
60583;BME280;46415;47.536;19.066;2023-09-08T02:38:33;-18639.31;;;15.11;100.00
60583;BME280;46415;47.536;19.066;2023-09-08T02:41:48;-18639.03;;;15.10;100.00
60583;BME280;46415;47.536;19.066;2023-09-08T02:45:01;-18639.59;;;15.13;100.00
60583;BME280;46415;47.536;19.066;2023-09-08T02:48:09;-18638.63;;;15.09;100.00
60583;BME280;46415;47.536;19.066;2023-09-08T02:51:20;-18637.81;;;15.06;100.00
60583;BME280;46415;47.536;19.066;2023-09-08T02:54:32;-18636.31;;;15.00;100.00
60583;BME280;46415;47.536;19.066;2023-09-08T02:57:48;-18635.22;;;14.96;100.00
60583;BME280;46415;47.536;19.066;2023-09-08T03:01:06;-18634.97;;;14.95;100.00
60583;BME280;46415;47.536;19.066;2023-09-08T03:04:22;-18634.53;;;14.94;100.00
60583;BME280;46415;47.536;19.066;2023-09-08T03:07:36;-18633.31;;;14.89;100.00
60583;BME280;46415;47.536;19.066;2023-09-08T03:10:49;-18632.91;;;14.88;100.00
60583;BME280;46415;47.536;19.066;2023-09-08T03:14:03;-18632.22;;;14.85;100.00
60583;BME280;46415;47.536;19.066;2023-09-08T03:17:21;-18631.53;;;14.83;100.00
60583;BME280;46415;47.536;19.066;2023-09-08T03:20:31;-18631.41;;;14.82;100.00
60583;BME280;46415;47.536;19.066;2023-09-08T03:23:53;-18630.31;;;14.78;100.00
60583;BME280;46415;47.536;19.066;2023-09-08T03:27:02;-18630.03;;;14.77;100.00
60583;BME280;46415;47.536;19.066;2023-09-08T03:30:15;-18630.03;;;14.77;100.00
60583;BME280;46415;47.536;19.066;2023-09-08T03:33:29;-18629.78;;;14.76;100.00
60583;BME280;46415;47.536;19.066;2023-09-08T03:36:47;-18629.78;;;14.76;100.00
60583;BME280;46415;47.536;19.066;2023-09-08T03:39:59;-18629.22;;;14.74;100.00
60583;BME280;46415;47.536;19.066;2023-09-08T03:43:16;-18630.03;;;14.77;100.00
60583;BME280;46415;47.536;19.066;2023-09-08T03:46:34;-18631.41;;;14.82;100.00
60583;BME280;46415;47.536;19.066;2023-09-08T03:49:43;-18631.94;;;14.84;100.00
60583;BME280;46415;47.536;19.066;2023-09-08T03:52:54;-18632.91;;;14.88;100.00
60583;BME280;46415;47.536;19.066;2023-09-08T03:56:09;-18634.41;;;14.93;100.00
60583;BME280;46415;47.536;19.066;2023-09-08T03:59:18;-18635.09;;;14.96;100.00
60583;BME280;46415;47.536;19.066;2023-09-08T04:02:26;-18635.09;;;14.96;100.00
60583;BME280;46415;47.536;19.066;2023-09-08T04:05:38;-18635.22;;;14.96;100.00
60583;BME280;46415;47.536;19.066;2023-09-08T04:08:53;-18635.91;;;14.99;100.00
60583;BME280;46415;47.536;19.066;2023-09-08T04:12:05;-18635.09;;;14.96;100.00
60583;BME280;46415;47.536;19.066;2023-09-08T04:15:17;-18633.03;;;14.88;100.00
60583;BME280;46415;47.536;19.066;2023-09-08T04:18:28;-18631.53;;;14.83;100.00
60583;BME280;46415;47.536;19.066;2023-09-08T04:21:40;-18630.44;;;14.79;100.00
60583;BME280;46415;47.536;19.066;2023-09-08T04:24:52;-18630.03;;;14.77;100.00
60583;BME280;46415;47.536;19.066;2023-09-08T04:28:06;-18630.19;;;14.78;100.00
60583;BME280;46415;47.536;19.066;2023-09-08T04:31:22;-18631.13;;;14.81;100.00
60583;BME280;46415;47.536;19.066;2023-09-08T04:34:31;-18632.78;;;14.87;100.00
60583;BME280;46415;47.536;19.066;2023-09-08T04:37:43;-18633.72;;;14.91;100.00
60583;BME280;46415;47.536;19.066;2023-09-08T04:40:55;-18634.00;;;14.92;100.00
60583;BME280;46415;47.536;19.066;2023-09-08T04:44:08;-18633.88;;;14.91;100.00
60583;BME280;46415;47.536;19.066;2023-09-08T04:47:16;-18633.88;;;14.91;100.00
60583;BME280;46415;47.536;19.066;2023-09-08T04:50:27;-18633.72;;;14.91;100.00
60583;BME280;46415;47.536;19.066;2023-09-08T04:53:40;-18633.72;;;14.91;100.00
60583;BME280;46415;47.536;19.066;2023-09-08T04:56:55;-18634.69;;;14.94;100.00
60583;BME280;46415;47.536;19.066;2023-09-08T05:00:29;-18635.78;;;14.98;100.00
60583;BME280;46415;47.536;19.066;2023-09-08T05:03:47;-18637.81;;;15.06;100.00
60583;BME280;46415;47.536;19.066;2023-09-08T05:06:59;-18639.47;;;15.12;100.00
60583;BME280;46415;47.536;19.066;2023-09-08T05:10:17;-18641.09;;;15.18;100.00
60583;BME280;46415;47.536;19.066;2023-09-08T05:13:22;-18643.97;;;15.29;100.00
60583;BME280;46415;47.536;19.066;2023-09-08T05:16:40;-18647.91;;;15.43;100.00
60583;BME280;46415;47.536;19.066;2023-09-08T05:19:59;-18651.88;;;15.58;100.00
60583;BME280;46415;47.536;19.066;2023-09-08T05:23:10;-18657.31;;;15.78;100.00
60583;BME280;46415;47.536;19.066;2023-09-08T05:26:19;-18662.91;;;15.99;100.00
60583;BME280;46415;47.536;19.066;2023-09-08T05:29:28;-18666.72;;;16.13;100.00
60583;BME280;46415;47.536;19.066;2023-09-08T05:32:31;-18672.31;;;16.34;100.00
60583;BME280;46415;47.536;19.066;2023-09-08T05:35:35;-18676.94;;;16.51;100.00
60583;BME280;46415;47.536;19.066;2023-09-08T05:38:40;-18681.44;;;16.68;100.00
60583;BME280;46415;47.536;19.066;2023-09-08T05:41:47;-18684.97;;;16.81;100.00
60583;BME280;46415;47.536;19.066;2023-09-08T05:44:54;-18690.03;;;17.00;100.00
60583;BME280;46415;47.536;19.066;2023-09-08T05:48:03;-18694.38;;;17.16;100.00
60583;BME280;46415;47.536;19.066;2023-09-08T05:51:13;-18698.06;;;17.30;100.00
60583;BME280;46415;47.536;19.066;2023-09-08T05:54:23;-18703.09;;;17.48;100.00
60583;BME280;46415;47.536;19.066;2023-09-08T05:57:30;-18708.53;;;17.69;100.00
60583;BME280;46415;47.536;19.066;2023-09-08T06:00:41;-18711.25;;;17.79;100.00
60583;BME280;46415;47.536;19.066;2023-09-08T06:03:49;-18716.16;;;17.97;100.00
60583;BME280;46415;47.536;19.066;2023-09-08T06:06:58;-18721.88;;;18.18;100.00
60583;BME280;46415;47.536;19.066;2023-09-08T06:10:01;-18725.13;;;18.30;100.00
60583;BME280;46415;47.536;19.066;2023-09-08T06:13:05;-18729.22;;;18.46;100.00
60583;BME280;46415;47.536;19.066;2023-09-08T06:16:08;-18731.81;;;18.55;100.00
60583;BME280;46415;47.536;19.066;2023-09-08T06:19:12;-18736.00;;;18.71;100.00
60583;BME280;46415;47.536;19.066;2023-09-08T06:22:25;-18743.09;;;18.97;100.00
60583;BME280;46415;47.536;19.066;2023-09-08T06:25:34;-18746.22;;;19.09;100.00
60583;BME280;46415;47.536;19.066;2023-09-08T06:28:43;-18748.53;;;19.17;100.00
60583;BME280;46415;47.536;19.066;2023-09-08T06:31:51;-18752.31;;;19.32;100.00
60583;BME280;46415;47.536;19.066;2023-09-08T06:35:01;-18758.16;;;19.53;100.00
60583;BME280;46415;47.536;19.066;2023-09-08T06:38:06;-18759.94;;;19.60;100.00
60583;BME280;46415;47.536;19.066;2023-09-08T06:41:15;-18765.09;;;19.79;99.65
60583;BME280;46415;47.536;19.066;2023-09-08T06:44:23;-18768.63;;;19.92;99.51
60583;BME280;46415;47.536;19.066;2023-09-08T06:47:29;-18771.63;;;20.04;99.75
60583;BME280;46415;47.536;19.066;2023-09-08T06:50:39;-18771.75;;;20.04;97.20
60583;BME280;46415;47.536;19.066;2023-09-08T06:53:55;-18775.28;;;20.17;95.83
60583;BME280;46415;47.536;19.066;2023-09-08T06:57:07;-18783.16;;;20.47;93.80
60583;BME280;46415;47.536;19.066;2023-09-08T07:00:11;-18786.00;;;20.57;93.80
60583;BME280;46415;47.536;19.066;2023-09-08T07:03:16;-18792.25;;;20.81;92.52
60583;BME280;46415;47.536;19.066;2023-09-08T07:06:23;-18798.34;;;21.03;88.04
60583;BME280;46415;47.536;19.066;2023-09-08T07:09:28;-18796.19;;;20.95;87.81
60583;BME280;46415;47.536;19.066;2023-09-08T07:12:37;-18798.88;;;21.05;86.93
60583;BME280;46415;47.536;19.066;2023-09-08T07:15:43;-18803.09;;;21.21;87.28
60583;BME280;46415;47.536;19.066;2023-09-08T07:18:51;-18808.53;;;21.41;86.60
60583;BME280;46415;47.536;19.066;2023-09-08T07:21:55;-18810.41;;;21.48;83.81
60583;BME280;46415;47.536;19.066;2023-09-08T07:24:59;-18812.59;;;21.56;85.10
60583;BME280;46415;47.536;19.066;2023-09-08T07:28:07;-18815.84;;;21.69;82.64
60583;BME280;46415;47.536;19.066;2023-09-08T07:31:17;-18817.47;;;21.75;83.49
60583;BME280;46415;47.536;19.066;2023-09-08T07:34:26;-18822.22;;;21.92;81.54
60583;BME280;46415;47.536;19.066;2023-09-08T07:37:30;-18827.78;;;22.13;81.17
60583;BME280;46415;47.536;19.066;2023-09-08T07:40:35;-18832.09;;;22.29;79.66
60583;BME280;46415;47.536;19.066;2023-09-08T07:43:43;-18830.47;;;22.23;79.05
60583;BME280;46415;47.536;19.066;2023-09-08T07:46:53;-18832.91;;;22.32;79.08
60583;BME280;46415;47.536;19.066;2023-09-08T07:53:22;-18831.44;;;22.27;79.99
60583;BME280;46415;47.536;19.066;2023-09-08T07:56:27;-18833.06;;;22.33;83.48
60583;BME280;46415;47.536;19.066;2023-09-08T07:59:32;-18834.69;;;22.39;79.54
60583;BME280;46415;47.536;19.066;2023-09-08T08:02:42;-18836.97;;;22.48;76.58
60583;BME280;46415;47.536;19.066;2023-09-08T08:05:55;-18835.50;;;22.42;79.25
60583;BME280;46415;47.536;19.066;2023-09-08T08:09:00;-18838.87;;;22.55;77.62
60583;BME280;46415;47.536;19.066;2023-09-08T08:12:28;-18843.47;;;22.72;77.91
60583;BME280;46415;47.536;19.066;2023-09-08T08:15:55;-18851.06;;;23.00;73.00
60583;BME280;46415;47.536;19.066;2023-09-08T08:19:03;-18850.94;;;23.00;73.34
60583;BME280;46415;47.536;19.066;2023-09-08T08:22:10;-18855.66;;;23.17;73.50
60583;BME280;46415;47.536;19.066;2023-09-08T08:25:18;-18857.97;;;23.26;72.78
60583;BME280;46415;47.536;19.066;2023-09-08T08:28:24;-18862.97;;;23.45;71.27
60583;BME280;46415;47.536;19.066;2023-09-08T08:31:33;-18865.28;;;23.53;70.46
60583;BME280;46415;47.536;19.066;2023-09-08T08:34:36;-18867.44;;;23.62;70.67
60583;BME280;46415;47.536;19.066;2023-09-08T08:37:43;-18868.25;;;23.65;70.03
60583;BME280;46415;47.536;19.066;2023-09-08T08:40:47;-18870.81;;;23.74;70.58
60583;BME280;46415;47.536;19.066;2023-09-08T08:43:56;-18872.31;;;23.80;71.12
60583;BME280;46415;47.536;19.066;2023-09-08T08:47:08;-18877.19;;;23.98;70.75
60583;BME280;46415;47.536;19.066;2023-09-08T08:50:17;-18881.63;;;24.15;69.60
60583;BME280;46415;47.536;19.066;2023-09-08T08:53:23;-18885.44;;;24.29;68.94
60583;BME280;46415;47.536;19.066;2023-09-08T08:56:31;-18888.00;;;24.38;67.80
60583;BME280;46415;47.536;19.066;2023-09-08T08:59:39;-18888.94;;;24.42;66.22
60583;BME280;46415;47.536;19.066;2023-09-08T09:02:48;-18891.78;;;24.53;67.26
60583;BME280;46415;47.536;19.066;2023-09-08T09:06:17;-18893.41;;;24.59;67.05
60583;BME280;46415;47.536;19.066;2023-09-08T09:09:26;-18896.91;;;24.72;66.17
60583;BME280;46415;47.536;19.066;2023-09-08T09:12:33;-18902.31;;;24.92;64.72
60583;BME280;46415;47.536;19.066;2023-09-08T09:15:37;-18903.00;;;24.95;63.91
60583;BME280;46415;47.536;19.066;2023-09-08T09:18:54;-18903.81;;;24.98;63.78
60583;BME280;46415;47.536;19.066;2023-09-08T09:22:08;-18903.69;;;24.97;63.44
60583;BME280;46415;47.536;19.066;2023-09-08T09:25:24;-18909.34;;;25.18;63.41
60583;BME280;46415;47.536;19.066;2023-09-08T09:28:40;-18908.00;;;25.13;63.09
60583;BME280;46415;47.536;19.066;2023-09-08T09:32:02;-18915.16;;;25.40;62.09
60583;BME280;46415;47.536;19.066;2023-09-08T09:35:14;-18919.22;;;25.55;59.91
60583;BME280;46415;47.536;19.066;2023-09-08T09:38:26;-18918.53;;;25.53;60.84
60583;BME280;46415;47.536;19.066;2023-09-08T09:41:34;-18918.41;;;25.52;60.11
60583;BME280;46415;47.536;19.066;2023-09-08T09:44:43;-18920.03;;;25.58;59.36
60583;BME280;46415;47.536;19.066;2023-09-08T09:47:52;-18921.91;;;25.66;59.05
60583;BME280;46415;47.536;19.066;2023-09-08T09:51:14;-18928.38;;;25.90;58.54
60583;BME280;46415;47.536;19.066;2023-09-08T09:54:25;-18930.41;;;25.97;57.68
60583;BME280;46415;47.536;19.066;2023-09-08T09:57:30;-18929.75;;;25.95;58.04
60583;BME280;46415;47.536;19.066;2023-09-08T10:00:38;-18937.44;;;26.24;56.68
60583;BME280;46415;47.536;19.066;2023-09-08T10:03:55;-18941.62;;;26.39;55.07
60583;BME280;46415;47.536;19.066;2023-09-08T10:07:03;-18943.50;;;26.47;53.90
60583;BME280;46415;47.536;19.066;2023-09-08T10:10:08;-18943.09;;;26.45;55.32
60583;BME280;46415;47.536;19.066;2023-09-08T10:13:26;-18945.13;;;26.53;55.50
60583;BME280;46415;47.536;19.066;2023-09-08T10:16:43;-18949.16;;;26.68;52.94
60583;BME280;46415;47.536;19.066;2023-09-08T10:19:51;-18948.91;;;26.67;53.36
60583;BME280;46415;47.536;19.066;2023-09-08T10:23:03;-18951.44;;;26.76;53.02
60583;BME280;46415;47.536;19.066;2023-09-08T10:26:12;-18950.91;;;26.74;51.78
60583;BME280;46415;47.536;19.066;2023-09-08T10:29:18;-18947.94;;;26.63;52.56
60583;BME280;46415;47.536;19.066;2023-09-08T10:32:24;-18950.37;;;26.72;52.52
60583;BME280;46415;47.536;19.066;2023-09-08T10:35:29;-18953.34;;;26.83;51.82
60583;BME280;46415;47.536;19.066;2023-09-08T10:38:37;-18952.94;;;26.82;52.64
60583;BME280;46415;47.536;19.066;2023-09-08T10:41:45;-18958.06;;;27.01;51.58
60583;BME280;46415;47.536;19.066;2023-09-08T10:45:01;-18961.44;;;27.14;51.82
60583;BME280;46415;47.536;19.066;2023-09-08T10:48:11;-18963.72;;;27.23;46.52
60583;BME280;46415;47.536;19.066;2023-09-08T10:51:19;-18965.34;;;27.29;45.04
60583;BME280;46415;47.536;19.066;2023-09-08T10:54:40;-18968.31;;;27.40;44.03
60583;BME280;46415;47.536;19.066;2023-09-08T10:57:45;-18973.69;;;27.60;43.76
60583;BME280;46415;47.536;19.066;2023-09-08T11:00:51;-18979.22;;;27.81;45.02
60583;BME280;46415;47.536;19.066;2023-09-08T11:04:00;-18980.84;;;27.87;42.66
60583;BME280;46415;47.536;19.066;2023-09-08T11:07:10;-18980.44;;;27.85;41.51
60583;BME280;46415;47.536;19.066;2023-09-08T11:10:13;-18979.87;;;27.83;42.42
60583;BME280;46415;47.536;19.066;2023-09-08T11:13:18;-18981.91;;;27.91;40.29
60583;BME280;46415;47.536;19.066;2023-09-08T11:16:22;-18979.34;;;27.81;40.14
60583;BME280;46415;47.536;19.066;2023-09-08T11:19:48;-18977.88;;;27.76;40.16
60583;BME280;46415;47.536;19.066;2023-09-08T11:22:51;-18981.50;;;27.89;40.87
60583;BME280;46415;47.536;19.066;2023-09-08T11:25:56;-18985.81;;;28.06;40.46
60583;BME280;46415;47.536;19.066;2023-09-08T11:29:01;-18987.16;;;28.11;40.10
60583;BME280;46415;47.536;19.066;2023-09-08T11:32:09;-18986.63;;;28.09;39.96
60583;BME280;46415;47.536;19.066;2023-09-08T11:35:16;-18984.59;;;28.01;40.20
60583;BME280;46415;47.536;19.066;2023-09-08T11:38:26;-18987.03;;;28.10;39.52
60583;BME280;46415;47.536;19.066;2023-09-08T11:41:31;-18986.91;;;28.10;39.32
60583;BME280;46415;47.536;19.066;2023-09-08T11:44:36;-18986.91;;;28.10;39.28
60583;BME280;46415;47.536;19.066;2023-09-08T11:47:42;-18986.34;;;28.08;38.26
60583;BME280;46415;47.536;19.066;2023-09-08T11:50:48;-18983.66;;;27.97;37.06
60583;BME280;46415;47.536;19.066;2023-09-08T11:53:51;-18984.19;;;27.99;38.00
60583;BME280;46415;47.536;19.066;2023-09-08T11:57:02;-18987.03;;;28.10;37.95
60583;BME280;46415;47.536;19.066;2023-09-08T12:00:06;-18988.09;;;28.14;37.33
60583;BME280;46415;47.536;19.066;2023-09-08T12:03:15;-18983.53;;;27.97;38.12
60583;BME280;46415;47.536;19.066;2023-09-08T12:06:27;-18982.59;;;27.93;38.10
60583;BME280;46415;47.536;19.066;2023-09-08T12:09:32;-18984.06;;;27.99;38.15
60583;BME280;46415;47.536;19.066;2023-09-08T12:12:50;-18984.47;;;28.00;38.60
60583;BME280;46415;47.536;19.066;2023-09-08T12:16:01;-18983.78;;;27.98;39.11
60583;BME280;46415;47.536;19.066;2023-09-08T12:19:18;-18983.53;;;27.97;39.16
60583;BME280;46415;47.536;19.066;2023-09-08T12:22:32;-18987.69;;;28.13;38.93
60583;BME280;46415;47.536;19.066;2023-09-08T12:25:48;-18988.78;;;28.17;37.36
60583;BME280;46415;47.536;19.066;2023-09-08T12:29:02;-18988.78;;;28.17;37.38
60583;BME280;46415;47.536;19.066;2023-09-08T12:32:13;-18989.06;;;28.18;37.01
60583;BME280;46415;47.536;19.066;2023-09-08T12:35:22;-18990.53;;;28.23;35.92
60583;BME280;46415;47.536;19.066;2023-09-08T12:38:30;-18990.94;;;28.25;36.81
60583;BME280;46415;47.536;19.066;2023-09-08T12:41:39;-18990.94;;;28.25;37.36
60583;BME280;46415;47.536;19.066;2023-09-08T12:44:43;-18990.94;;;28.25;36.84
60583;BME280;46415;47.536;19.066;2023-09-08T12:47:49;-18989.59;;;28.20;36.75
60583;BME280;46415;47.536;19.066;2023-09-08T12:50:58;-18992.00;;;28.29;36.10
60583;BME280;46415;47.536;19.066;2023-09-08T12:54:06;-18994.97;;;28.40;36.20
60583;BME280;46415;47.536;19.066;2023-09-08T12:57:15;-18997.78;;;28.51;35.75
60583;BME280;46415;47.536;19.066;2023-09-08T13:00:23;-18997.66;;;28.50;35.40
60583;BME280;46415;47.536;19.066;2023-09-08T13:03:29;-18991.47;;;28.27;36.34
60583;BME280;46415;47.536;19.066;2023-09-08T13:06:36;-18994.69;;;28.39;36.51
60583;BME280;46415;47.536;19.066;2023-09-08T13:09:42;-18993.75;;;28.35;35.77
60583;BME280;46415;47.536;19.066;2023-09-08T13:12:50;-18994.03;;;28.36;35.19
60583;BME280;46415;47.536;19.066;2023-09-08T13:16:01;-18993.09;;;28.33;34.58
60583;BME280;46415;47.536;19.066;2023-09-08T13:19:17;-18993.34;;;28.34;35.09
60583;BME280;46415;47.536;19.066;2023-09-08T13:22:27;-18998.75;;;28.54;34.60
60583;BME280;46415;47.536;19.066;2023-09-08T13:25:37;-19000.34;;;28.60;35.01
60583;BME280;46415;47.536;19.066;2023-09-08T13:28:45;-19000.50;;;28.61;34.19
60583;BME280;46415;47.536;19.066;2023-09-08T13:31:56;-18997.66;;;28.50;35.22
60583;BME280;46415;47.536;19.066;2023-09-08T13:35:06;-19000.09;;;28.59;34.75
60583;BME280;46415;47.536;19.066;2023-09-08T13:38:12;-19001.16;;;28.63;34.18
60583;BME280;46415;47.536;19.066;2023-09-08T13:41:22;-19000.09;;;28.59;34.08
60583;BME280;46415;47.536;19.066;2023-09-08T13:44:29;-19000.50;;;28.61;33.86
60583;BME280;46415;47.536;19.066;2023-09-08T13:47:40;-19002.09;;;28.67;34.42
60583;BME280;46415;47.536;19.066;2023-09-08T13:51:00;-19003.19;;;28.71;33.97
60583;BME280;46415;47.536;19.066;2023-09-08T13:54:12;-19000.75;;;28.62;33.78
60583;BME280;46415;47.536;19.066;2023-09-08T13:57:23;-19004.13;;;28.74;34.34
60583;BME280;46415;47.536;19.066;2023-09-08T14:00:33;-19000.34;;;28.60;34.95
60583;BME280;46415;47.536;19.066;2023-09-08T14:03:50;-19003.19;;;28.71;34.88
60583;BME280;46415;47.536;19.066;2023-09-08T14:07:01;-19008.16;;;28.90;34.70
60583;BME280;46415;47.536;19.066;2023-09-08T14:10:16;-19007.63;;;28.88;33.99
60583;BME280;46415;47.536;19.066;2023-09-08T14:13:31;-19008.97;;;28.93;33.26
60583;BME280;46415;47.536;19.066;2023-09-08T14:16:40;-19010.19;;;28.97;31.54
60583;BME280;46415;47.536;19.066;2023-09-08T14:19:54;-19010.72;;;28.99;32.27
60583;BME280;46415;47.536;19.066;2023-09-08T14:23:05;-19014.63;;;29.14;32.70
60583;BME280;46415;47.536;19.066;2023-09-08T14:26:19;-19015.97;;;29.19;32.53
60583;BME280;46415;47.536;19.066;2023-09-08T14:29:28;-19017.31;;;29.24;32.57
60583;BME280;46415;47.536;19.066;2023-09-08T14:32:40;-19015.16;;;29.16;32.49
60583;BME280;46415;47.536;19.066;2023-09-08T14:35:51;-19017.72;;;29.26;32.52
60583;BME280;46415;47.536;19.066;2023-09-08T14:39:04;-19015.81;;;29.18;32.44
60583;BME280;46415;47.536;19.066;2023-09-08T14:42:22;-19017.03;;;29.23;32.49
60583;BME280;46415;47.536;19.066;2023-09-08T14:45:38;-19014.22;;;29.12;32.53
60583;BME280;46415;47.536;19.066;2023-09-08T14:48:53;-19016.75;;;29.22;32.49
60583;BME280;46415;47.536;19.066;2023-09-08T14:52:06;-19023.75;;;29.48;33.04
60583;BME280;46415;47.536;19.066;2023-09-08T14:55:18;-19030.06;;;29.72;32.21
60583;BME280;46415;47.536;19.066;2023-09-08T14:58:27;-19036.53;;;29.96;32.00
60583;BME280;46415;47.536;19.066;2023-09-08T15:01:41;-19043.38;;;30.22;31.24
60583;BME280;46415;47.536;19.066;2023-09-08T15:04:55;-19048.22;;;30.40;30.26
60583;BME280;46415;47.536;19.066;2023-09-08T15:08:08;-19061.91;;;30.92;29.55
60583;BME280;46415;47.536;19.066;2023-09-08T15:11:20;-19074.13;;;31.38;29.38
60583;BME280;46415;47.536;19.066;2023-09-08T15:14:30;-19081.22;;;31.65;28.27
60583;BME280;46415;47.536;19.066;2023-09-08T15:17:39;-19084.56;;;31.78;27.83
60583;BME280;46415;47.536;19.066;2023-09-08T15:20:54;-19088.19;;;31.91;27.20
60583;BME280;46415;47.536;19.066;2023-09-08T15:24:08;-19106.41;;;32.60;26.48
60583;BME280;46415;47.536;19.066;2023-09-08T15:27:19;-19133.84;;;33.64;25.34
60583;BME280;46415;47.536;19.066;2023-09-08T15:30:30;-19159.91;;;34.63;24.68
60583;BME280;46415;47.536;19.066;2023-09-08T15:33:43;-19180.34;;;35.40;23.69
60583;BME280;46415;47.536;19.066;2023-09-08T15:36:53;-19206.09;;;36.38;22.39
60583;BME280;46415;47.536;19.066;2023-09-08T15:40:02;-19233.00;;;37.40;21.66
60583;BME280;46415;47.536;19.066;2023-09-08T15:43:11;-19242.59;;;37.77;21.16
60583;BME280;46415;47.536;19.066;2023-09-08T15:46:27;-19256.41;;;38.29;20.90
60583;BME280;46415;47.536;19.066;2023-09-08T15:49:40;-19268.91;;;38.77;20.25
60583;BME280;46415;47.536;19.066;2023-09-08T15:52:54;-19270.63;;;38.84;20.24
60583;BME280;46415;47.536;19.066;2023-09-08T15:56:08;-19268.62;;;38.76;19.51
60583;BME280;46415;47.536;19.066;2023-09-08T15:59:20;-19266.50;;;38.68;20.01
60583;BME280;46415;47.536;19.066;2023-09-08T16:02:32;-19270.75;;;38.84;19.51
60583;BME280;46415;47.536;19.066;2023-09-08T16:05:45;-19274.22;;;38.97;20.06
60583;BME280;46415;47.536;19.066;2023-09-08T16:09:01;-19273.16;;;38.93;19.58
60583;BME280;46415;47.536;19.066;2023-09-08T16:12:14;-19271.81;;;38.88;19.92
60583;BME280;46415;47.536;19.066;2023-09-08T16:15:24;-19257.47;;;38.33;19.88
60583;BME280;46415;47.536;19.066;2023-09-08T16:18:35;-19244.84;;;37.85;20.57
60583;BME280;46415;47.536;19.066;2023-09-08T16:21:48;-19221.81;;;36.98;21.87
60583;BME280;46415;47.536;19.066;2023-09-08T16:24:58;-19187.16;;;35.66;22.86
60583;BME280;46415;47.536;19.066;2023-09-08T16:28:09;-19128.37;;;33.43;24.91